sensor_id;sensor_type;location;lat;lon;timestamp;pressure;altitude;pressure_sealevel;temperature;humidity
54546;BME280;40444;45.184;9.850;2023-10-09T00:00:27;101557.03;;;17.65;100.00
54546;BME280;40444;45.184;9.850;2023-10-09T00:03:07;101555.66;;;17.61;100.00
54546;BME280;40444;45.184;9.850;2023-10-09T00:05:35;101552.59;;;17.56;100.00
54546;BME280;40444;45.184;9.850;2023-10-09T00:08:17;101562.56;;;17.55;100.00
54546;BME280;40444;45.184;9.850;2023-10-09T00:11:06;101564.03;;;17.50;100.00
54546;BME280;40444;45.184;9.850;2023-10-09T00:13:46;101565.34;;;17.46;100.00
54546;BME280;40444;45.184;9.850;2023-10-09T00:16:21;101566.38;;;17.44;100.00
54546;BME280;40444;45.184;9.850;2023-10-09T00:19:05;101566.53;;;17.43;100.00
54546;BME280;40444;45.184;9.850;2023-10-09T00:21:48;101557.50;;;17.34;100.00
54546;BME280;40444;45.184;9.850;2023-10-09T00:24:18;101562.56;;;17.29;100.00
54546;BME280;40444;45.184;9.850;2023-10-09T00:26:53;101562.19;;;17.24;100.00
54546;BME280;40444;45.184;9.850;2023-10-09T00:29:40;101569.28;;;17.25;100.00
54546;BME280;40444;45.184;9.850;2023-10-09T00:32:17;101568.59;;;17.23;100.00
54546;BME280;40444;45.184;9.850;2023-10-09T00:34:54;101576.34;;;17.18;100.00
54546;BME280;40444;45.184;9.850;2023-10-09T00:37:26;101569.16;;;17.09;100.00
54546;BME280;40444;45.184;9.850;2023-10-09T00:40:02;101572.50;;;17.03;100.00
54546;BME280;40444;45.184;9.850;2023-10-09T00:42:40;101559.97;;;17.02;100.00
54546;BME280;40444;45.184;9.850;2023-10-09T00:45:09;101559.59;;;16.97;100.00
54546;BME280;40444;45.184;9.850;2023-10-09T00:47:38;101557.09;;;17.03;100.00
54546;BME280;40444;45.184;9.850;2023-10-09T00:50:10;101554.38;;;17.03;100.00
54546;BME280;40444;45.184;9.850;2023-10-09T00:52:52;101548.66;;;17.06;100.00
54546;BME280;40444;45.184;9.850;2023-10-09T00:55:32;101554.47;;;17.11;100.00
54546;BME280;40444;45.184;9.850;2023-10-09T00:58:24;101556.63;;;17.08;100.00
54546;BME280;40444;45.184;9.850;2023-10-09T01:00:59;101554.94;;;17.07;100.00
54546;BME280;40444;45.184;9.850;2023-10-09T01:03:28;101553.25;;;17.06;100.00
54546;BME280;40444;45.184;9.850;2023-10-09T01:06:02;101551.84;;;17.02;100.00
54546;BME280;40444;45.184;9.850;2023-10-09T01:08:39;101550.84;;;17.03;100.00
54546;BME280;40444;45.184;9.850;2023-10-09T01:11:12;101539.53;;;17.07;100.00
54546;BME280;40444;45.184;9.850;2023-10-09T01:13:48;101542.16;;;16.99;100.00
54546;BME280;40444;45.184;9.850;2023-10-09T01:16:19;101540.84;;;17.03;100.00
54546;BME280;40444;45.184;9.850;2023-10-09T01:18:54;101533.56;;;17.04;100.00
54546;BME280;40444;45.184;9.850;2023-10-09T01:21:25;101541.03;;;17.02;100.00
54546;BME280;40444;45.184;9.850;2023-10-09T01:24:00;101532.06;;;17.01;100.00
54546;BME280;40444;45.184;9.850;2023-10-09T01:29:23;101522.06;;;17.02;100.00
54546;BME280;40444;45.184;9.850;2023-10-09T01:31:56;101524.78;;;17.02;100.00
54546;BME280;40444;45.184;9.850;2023-10-09T01:34:29;101523.38;;;16.98;100.00
54546;BME280;40444;45.184;9.850;2023-10-09T01:37:15;101523.38;;;16.98;100.00
54546;BME280;40444;45.184;9.850;2023-10-09T01:39:54;101529.09;;;16.95;100.00
54546;BME280;40444;45.184;9.850;2023-10-09T01:42:26;101527.72;;;16.90;100.00
54546;BME280;40444;45.184;9.850;2023-10-09T01:45:13;101531.13;;;16.92;100.00
54546;BME280;40444;45.184;9.850;2023-10-09T01:47:55;101526.19;;;16.88;100.00
54546;BME280;40444;45.184;9.850;2023-10-09T01:50:26;101523.06;;;16.83;100.00
54546;BME280;40444;45.184;9.850;2023-10-09T01:53:00;101532.53;;;16.79;100.00
54546;BME280;40444;45.184;9.850;2023-10-09T01:55:30;101527.41;;;16.76;100.00
54546;BME280;40444;45.184;9.850;2023-10-09T01:58:18;101543.38;;;16.69;100.00
54546;BME280;40444;45.184;9.850;2023-10-09T02:00:50;101534.50;;;16.59;100.00
54546;BME280;40444;45.184;9.850;2023-10-09T02:03:30;101540.53;;;16.53;100.00
54546;BME280;40444;45.184;9.850;2023-10-09T02:05:59;101536.44;;;16.49;100.00
54546;BME280;40444;45.184;9.850;2023-10-09T02:08:29;101540.53;;;16.53;100.00
54546;BME280;40444;45.184;9.850;2023-10-09T02:11:03;101548.94;;;16.50;100.00
54546;BME280;40444;45.184;9.850;2023-10-09T02:13:32;101542.38;;;16.52;100.00
54546;BME280;40444;45.184;9.850;2023-10-09T02:16:04;101539.53;;;16.54;100.00
54546;BME280;40444;45.184;9.850;2023-10-09T02:18:56;101545.59;;;16.56;100.00
54546;BME280;40444;45.184;9.850;2023-10-09T02:21:27;101536.66;;;16.55;100.00
54546;BME280;40444;45.184;9.850;2023-10-09T02:24:04;101535.81;;;16.55;100.00
54546;BME280;40444;45.184;9.850;2023-10-09T02:26:35;101532.03;;;16.48;100.00
54546;BME280;40444;45.184;9.850;2023-10-09T02:29:07;101535.88;;;16.45;100.00
54546;BME280;40444;45.184;9.850;2023-10-09T02:31:41;101539.72;;;16.42;100.00
54546;BME280;40444;45.184;9.850;2023-10-09T02:34:14;101539.03;;;16.40;100.00
54546;BME280;40444;45.184;9.850;2023-10-09T02:36:44;101542.13;;;16.46;100.00
54546;BME280;40444;45.184;9.850;2023-10-09T02:39:26;101537.44;;;16.48;100.00
54546;BME280;40444;45.184;9.850;2023-10-09T02:41:56;101545.56;;;16.48;100.00
54546;BME280;40444;45.184;9.850;2023-10-09T02:44:51;101546.69;;;16.45;100.00
54546;BME280;40444;45.184;9.850;2023-10-09T02:47:20;101533.00;;;16.47;100.00
54546;BME280;40444;45.184;9.850;2023-10-09T02:49:52;101533.63;;;16.40;100.00
54546;BME280;40444;45.184;9.850;2023-10-09T02:52:28;101528.97;;;16.33;100.00
54546;BME280;40444;45.184;9.850;2023-10-09T02:55:01;101528.13;;;16.32;100.00
54546;BME280;40444;45.184;9.850;2023-10-09T02:57:36;101524.28;;;16.35;100.00
54546;BME280;40444;45.184;9.850;2023-10-09T03:00:07;101524.56;;;16.32;100.00
54546;BME280;40444;45.184;9.850;2023-10-09T03:02:47;101526.03;;;16.26;100.00
54546;BME280;40444;45.184;9.850;2023-10-09T03:05:18;101526.34;;;16.23;100.00
54546;BME280;40444;45.184;9.850;2023-10-09T03:07:48;101521.38;;;16.18;100.00
54546;BME280;40444;45.184;9.850;2023-10-09T03:10:18;101526.09;;;16.16;100.00
54546;BME280;40444;45.184;9.850;2023-10-09T03:12:46;101521.00;;;16.13;100.00
54546;BME280;40444;45.184;9.850;2023-10-09T03:15:20;101529.09;;;16.13;100.00
54546;BME280;40444;45.184;9.850;2023-10-09T03:17:49;101532.94;;;16.11;100.00
54546;BME280;40444;45.184;9.850;2023-10-09T03:20:18;101527.09;;;16.15;100.00
54546;BME280;40444;45.184;9.850;2023-10-09T03:22:46;101521.94;;;16.22;100.00
54546;BME280;40444;45.184;9.850;2023-10-09T03:25:16;101532.41;;;16.35;100.00
54546;BME280;40444;45.184;9.850;2023-10-09T03:27:48;101531.28;;;16.28;100.00
54546;BME280;40444;45.184;9.850;2023-10-09T03:30:17;101526.13;;;16.34;100.00
54546;BME280;40444;45.184;9.850;2023-10-09T03:32:52;101526.13;;;16.34;100.00
54546;BME280;40444;45.184;9.850;2023-10-09T03:35:22;101531.53;;;16.34;100.00
54546;BME280;40444;45.184;9.850;2023-10-09T03:37:59;101529.22;;;16.39;100.00
54546;BME280;40444;45.184;9.850;2023-10-09T03:40:46;101530.22;;;16.38;100.00
54546;BME280;40444;45.184;9.850;2023-10-09T03:43:17;101542.13;;;16.46;100.00
54546;BME280;40444;45.184;9.850;2023-10-09T03:45:47;101531.59;;;16.42;100.00
54546;BME280;40444;45.184;9.850;2023-10-09T03:48:22;101537.56;;;16.46;100.00
54546;BME280;40444;45.184;9.850;2023-10-09T03:50:55;101543.59;;;16.40;100.00
54546;BME280;40444;45.184;9.850;2023-10-09T03:53:50;101546.75;;;16.35;100.00
54546;BME280;40444;45.184;9.850;2023-10-09T03:56:19;101538.66;;;16.35;100.00
54546;BME280;40444;45.184;9.850;2023-10-09T03:58:50;101540.25;;;16.28;100.00
54546;BME280;40444;45.184;9.850;2023-10-09T04:01:19;101537.94;;;16.33;100.00
54546;BME280;40444;45.184;9.850;2023-10-09T04:03:57;101535.41;;;16.32;100.00
54546;BME280;40444;45.184;9.850;2023-10-09T04:06:30;101535.56;;;16.30;100.00
54546;BME280;40444;45.184;9.850;2023-10-09T04:09:11;101535.09;;;16.35;100.00
54546;BME280;40444;45.184;9.850;2023-10-09T04:11:50;101534.72;;;16.30;100.00
54546;BME280;40444;45.184;9.850;2023-10-09T04:14:41;101536.97;;;16.34;100.00
54546;BME280;40444;45.184;9.850;2023-10-09T04:17:31;101542.59;;;16.41;100.00
54546;BME280;40444;45.184;9.850;2023-10-09T04:20:04;101541.34;;;16.35;100.00
54546;BME280;40444;45.184;9.850;2023-10-09T04:22:47;101530.38;;;16.37;100.00
54546;BME280;40444;45.184;9.850;2023-10-09T04:25:20;101526.44;;;16.31;100.00
54546;BME280;40444;45.184;9.850;2023-10-09T04:27:58;101542.50;;;16.33;100.00
54546;BME280;40444;45.184;9.850;2023-10-09T04:30:59;101531.22;;;16.37;100.00
54546;BME280;40444;45.184;9.850;2023-10-09T04:33:34;101529.81;;;16.33;100.00
54546;BME280;40444;45.184;9.850;2023-10-09T04:36:11;101531.00;;;16.31;100.00
54546;BME280;40444;45.184;9.850;2023-10-09T04:38:51;101526.59;;;16.30;100.00
54546;BME280;40444;45.184;9.850;2023-10-09T04:41:33;101522.66;;;16.42;100.00
54546;BME280;40444;45.184;9.850;2023-10-09T04:44:20;101522.56;;;16.34;100.00
54546;BME280;40444;45.184;9.850;2023-10-09T04:46:52;101529.13;;;16.31;100.00
54546;BME280;40444;45.184;9.850;2023-10-09T04:49:47;101528.38;;;16.39;100.00
54546;BME280;40444;45.184;9.850;2023-10-09T16:59:12;101144.81;;;25.68;66.97
54546;BME280;40444;45.184;9.850;2023-10-09T17:01:44;101146.16;;;25.59;67.79
54546;BME280;40444;45.184;9.850;2023-10-09T17:04:14;101143.84;;;25.56;69.59
54546;BME280;40444;45.184;9.850;2023-10-09T17:06:46;101144.28;;;25.53;71.05
54546;BME280;40444;45.184;9.850;2023-10-09T17:09:24;101154.03;;;25.49;70.85
54546;BME280;40444;45.184;9.850;2023-10-09T17:11:55;101160.19;;;25.44;72.08
54546;BME280;40444;45.184;9.850;2023-10-09T17:14:25;101157.28;;;25.39;72.80
54546;BME280;40444;45.184;9.850;2023-10-09T17:16:55;101162.41;;;25.29;72.09
54546;BME280;40444;45.184;9.850;2023-10-09T17:19:26;101162.00;;;25.25;72.86
54546;BME280;40444;45.184;9.850;2023-10-09T17:21:55;101162.44;;;25.22;72.55
54546;BME280;40444;45.184;9.850;2023-10-09T17:24:25;101167.34;;;25.13;72.96
54546;BME280;40444;45.184;9.850;2023-10-09T17:26:54;101169.91;;;25.08;73.79
54546;BME280;40444;45.184;9.850;2023-10-09T17:29:24;101162.13;;;24.99;75.22
54546;BME280;40444;45.184;9.850;2023-10-09T17:31:56;101170.59;;;24.90;76.30
54546;BME280;40444;45.184;9.850;2023-10-09T17:34:24;101171.72;;;24.83;76.09
54546;BME280;40444;45.184;9.850;2023-10-09T17:36:55;101168.38;;;24.74;74.80
54546;BME280;40444;45.184;9.850;2023-10-09T17:39:26;101178.09;;;24.63;75.05
54546;BME280;40444;45.184;9.850;2023-10-09T17:41:55;101176.88;;;24.53;75.41
54546;BME280;40444;45.184;9.850;2023-10-09T17:44:24;101184.28;;;24.39;74.74
54546;BME280;40444;45.184;9.850;2023-10-09T17:46:53;101187.63;;;24.34;75.68
54546;BME280;40444;45.184;9.850;2023-10-09T17:49:22;101192.28;;;24.27;72.83
54546;BME280;40444;45.184;9.850;2023-10-09T17:51:53;101192.28;;;24.20;71.63
54546;BME280;40444;45.184;9.850;2023-10-09T17:54:22;101190.16;;;24.23;71.07
54546;BME280;40444;45.184;9.850;2023-10-09T17:56:52;101187.25;;;24.17;74.30
54546;BME280;40444;45.184;9.850;2023-10-09T17:59:24;101190.00;;;23.98;75.73
54546;BME280;40444;45.184;9.850;2023-10-09T18:01:55;101187.03;;;23.92;76.87
54546;BME280;40444;45.184;9.850;2023-10-09T18:04:25;101191.47;;;23.87;77.09
54546;BME280;40444;45.184;9.850;2023-10-09T18:06:54;101184.94;;;23.75;77.12
54546;BME280;40444;45.184;9.850;2023-10-09T18:09:22;101190.00;;;23.71;78.30
54546;BME280;40444;45.184;9.850;2023-10-09T18:11:56;101195.88;;;23.68;78.28
54546;BME280;40444;45.184;9.850;2023-10-09T18:14:25;101191.00;;;23.63;78.56
54546;BME280;40444;45.184;9.850;2023-10-09T18:16:53;101186.78;;;23.61;78.80
54546;BME280;40444;45.184;9.850;2023-10-09T18:19:24;101186.16;;;23.59;77.86
54546;BME280;40444;45.184;9.850;2023-10-09T18:21:53;101192.47;;;23.59;77.61
54546;BME280;40444;45.184;9.850;2023-10-09T18:24:21;101183.22;;;23.60;76.77
54546;BME280;40444;45.184;9.850;2023-10-09T18:26:51;101196.06;;;23.60;75.04
54546;BME280;40444;45.184;9.850;2023-10-09T18:29:20;101202.34;;;23.60;75.84
54546;BME280;40444;45.184;9.850;2023-10-09T18:31:49;101200.91;;;23.58;76.78
54546;BME280;40444;45.184;9.850;2023-10-09T18:34:17;101189.53;;;23.54;77.26
54546;BME280;40444;45.184;9.850;2023-10-09T18:36:49;101192.06;;;23.49;76.65
54546;BME280;40444;45.184;9.850;2023-10-09T18:39:19;101184.03;;;23.48;76.37
54546;BME280;40444;45.184;9.850;2023-10-09T18:41:51;101189.72;;;23.46;77.27
54546;BME280;40444;45.184;9.850;2023-10-09T18:44:22;101188.22;;;23.43;77.20
54546;BME280;40444;45.184;9.850;2023-10-09T18:46:51;101182.13;;;23.41;76.92
54546;BME280;40444;45.184;9.850;2023-10-09T18:49:22;101189.91;;;23.38;76.82
54546;BME280;40444;45.184;9.850;2023-10-09T18:51:51;101197.91;;;23.39;75.53
54546;BME280;40444;45.184;9.850;2023-10-09T18:54:19;101198.75;;;23.33;75.66
54546;BME280;40444;45.184;9.850;2023-10-09T18:56:48;101195.81;;;23.41;75.55
54546;BME280;40444;45.184;9.850;2023-10-09T18:59:16;101198.56;;;23.41;75.66
54546;BME280;40444;45.184;9.850;2023-10-09T19:01:49;101206.97;;;23.40;76.43
54546;BME280;40444;45.184;9.850;2023-10-09T19:04:19;101206.97;;;23.40;76.21
54546;BME280;40444;45.184;9.850;2023-10-09T19:06:48;101208.22;;;23.37;76.63
54546;BME280;40444;45.184;9.850;2023-10-09T19:09:16;101201.06;;;23.36;75.46
54546;BME280;40444;45.184;9.850;2023-10-09T19:11:51;101203.38;;;23.39;76.11
54546;BME280;40444;45.184;9.850;2023-10-09T19:14:20;101205.69;;;23.36;76.21
54546;BME280;40444;45.184;9.850;2023-10-09T19:16:48;101204.44;;;23.32;75.53
54546;BME280;40444;45.184;9.850;2023-10-09T19:19:17;101205.88;;;23.28;76.42
54546;BME280;40444;45.184;9.850;2023-10-09T19:21:46;101201.66;;;23.25;76.67
54546;BME280;40444;45.184;9.850;2023-10-09T19:24:15;101214.47;;;23.18;76.92
54546;BME280;40444;45.184;9.850;2023-10-09T19:26:44;101218.06;;;23.25;75.99
54546;BME280;40444;45.184;9.850;2023-10-09T19:29:12;101217.41;;;23.16;76.05
54546;BME280;40444;45.184;9.850;2023-10-09T19:31:42;101226.44;;;23.17;76.24
54546;BME280;40444;45.184;9.850;2023-10-09T19:34:11;101216.13;;;23.12;77.05
54546;BME280;40444;45.184;9.850;2023-10-09T19:36:41;101215.91;;;23.07;76.68
54546;BME280;40444;45.184;9.850;2023-10-09T19:39:15;101215.06;;;23.07;76.92
54546;BME280;40444;45.184;9.850;2023-10-09T19:41:45;101216.72;;;23.01;77.28
54546;BME280;40444;45.184;9.850;2023-10-09T19:44:14;101223.78;;;22.89;77.69
54546;BME280;40444;45.184;9.850;2023-10-09T19:46:42;101220.19;;;22.82;78.53
54546;BME280;40444;45.184;9.850;2023-10-09T19:49:12;101227.50;;;22.75;78.83
54546;BME280;40444;45.184;9.850;2023-10-09T19:51:41;101229.56;;;22.66;79.18
54546;BME280;40444;45.184;9.850;2023-10-09T19:54:11;101224.16;;;22.73;78.60
54546;BME280;40444;45.184;9.850;2023-10-09T19:56:41;101227.22;;;22.63;79.42
54546;BME280;40444;45.184;9.850;2023-10-09T19:59:10;101229.31;;;22.61;78.95
54546;BME280;40444;45.184;9.850;2023-10-09T20:01:40;101237.28;;;22.56;79.04
54546;BME280;40444;45.184;9.850;2023-10-09T20:04:08;101242.50;;;22.51;79.45
54546;BME280;40444;45.184;9.850;2023-10-09T20:06:37;101237.47;;;22.54;79.10
54546;BME280;40444;45.184;9.850;2023-10-09T20:09:07;101243.78;;;22.55;78.82
54546;BME280;40444;45.184;9.850;2023-10-09T20:11:40;101243.13;;;22.53;78.93
54546;BME280;40444;45.184;9.850;2023-10-09T20:14:09;101251.72;;;22.50;79.00
54546;BME280;40444;45.184;9.850;2023-10-09T20:16:38;101255.25;;;22.43;79.58
54546;BME280;40444;45.184;9.850;2023-10-09T20:19:07;101257.53;;;22.40;80.10
54546;BME280;40444;45.184;9.850;2023-10-09T20:21:37;101256.06;;;22.37;79.96
54546;BME280;40444;45.184;9.850;2023-10-09T20:24:05;101247.59;;;22.32;80.04
54546;BME280;40444;45.184;9.850;2023-10-09T20:26:34;101252.19;;;22.25;80.36
54546;BME280;40444;45.184;9.850;2023-10-09T20:29:04;101251.09;;;22.19;80.55
54546;BME280;40444;45.184;9.850;2023-10-09T20:31:33;101253.94;;;22.11;81.23
54546;BME280;40444;45.184;9.850;2023-10-09T20:34:01;101257.25;;;22.07;81.73
54546;BME280;40444;45.184;9.850;2023-10-09T20:36:30;101260.75;;;22.01;81.92
54546;BME280;40444;45.184;9.850;2023-10-09T20:38:59;101254.47;;;22.00;82.11
54546;BME280;40444;45.184;9.850;2023-10-09T20:41:28;101261.56;;;21.94;82.91
54546;BME280;40444;45.184;9.850;2023-10-09T20:43:57;101270.97;;;21.92;83.26
54546;BME280;40444;45.184;9.850;2023-10-09T20:46:26;101273.91;;;21.90;83.93
54546;BME280;40444;45.184;9.850;2023-10-09T20:48:57;101275.72;;;21.83;84.87
54546;BME280;40444;45.184;9.850;2023-10-09T20:51:28;101272.09;;;21.76;85.44
54546;BME280;40444;45.184;9.850;2023-10-09T20:54:03;101280.84;;;21.72;86.25
54546;BME280;40444;45.184;9.850;2023-10-09T20:56:34;101271.56;;;21.66;86.82
54546;BME280;40444;45.184;9.850;2023-10-09T20:59:05;101281.75;;;21.57;87.59
54546;BME280;40444;45.184;9.850;2023-10-09T21:01:33;101280.19;;;21.48;87.91
54546;BME280;40444;45.184;9.850;2023-10-09T21:04:02;101272.38;;;21.45;88.28
54546;BME280;40444;45.184;9.850;2023-10-09T21:06:31;101277.09;;;21.36;88.59
54546;BME280;40444;45.184;9.850;2023-10-09T21:09:00;101276.63;;;21.33;88.68
54546;BME280;40444;45.184;9.850;2023-10-09T21:11:30;101283.66;;;21.27;89.47
54546;BME280;40444;45.184;9.850;2023-10-09T21:13:59;101284.25;;;21.23;89.21
54546;BME280;40444;45.184;9.850;2023-10-09T21:16:28;101282.09;;;21.18;89.63
54546;BME280;40444;45.184;9.850;2023-10-09T21:18:57;101286.81;;;21.09;90.38
54546;BME280;40444;45.184;9.850;2023-10-09T21:21:26;101279.00;;;21.06;90.70
54546;BME280;40444;45.184;9.850;2023-10-09T21:23:59;101285.50;;;21.05;91.03
54546;BME280;40444;45.184;9.850;2023-10-09T21:26:28;101284.09;;;20.94;91.64
54546;BME280;40444;45.184;9.850;2023-10-09T21:28:57;101292.06;;;20.96;92.12
54546;BME280;40444;45.184;9.850;2023-10-09T21:31:28;101290.00;;;20.98;92.38
54546;BME280;40444;45.184;9.850;2023-10-09T21:33:57;101295.44;;;20.98;92.81
54546;BME280;40444;45.184;9.850;2023-10-09T21:36:33;101300.44;;;20.94;93.41
54546;BME280;40444;45.184;9.850;2023-10-09T21:39:03;101300.81;;;20.91;93.86
54546;BME280;40444;45.184;9.850;2023-10-09T21:41:41;101307.31;;;20.90;94.16
54546;BME280;40444;45.184;9.850;2023-10-09T21:44:10;101304.47;;;20.84;94.62
54546;BME280;40444;45.184;9.850;2023-10-09T21:46:42;101308.16;;;20.76;95.19
54546;BME280;40444;45.184;9.850;2023-10-09T21:49:13;101312.91;;;20.74;95.39
54546;BME280;40444;45.184;9.850;2023-10-09T21:51:42;101319.78;;;20.70;95.59
54546;BME280;40444;45.184;9.850;2023-10-09T21:54:11;101316.41;;;20.68;96.33
54546;BME280;40444;45.184;9.850;2023-10-09T21:56:39;101324.28;;;20.63;96.57
54546;BME280;40444;45.184;9.850;2023-10-09T21:59:08;101311.03;;;20.60;97.06
54546;BME280;40444;45.184;9.850;2023-10-09T22:01:40;101312.78;;;20.53;97.53
54546;BME280;40444;45.184;9.850;2023-10-09T22:04:09;101313.50;;;20.47;97.20
54546;BME280;40444;45.184;9.850;2023-10-09T22:06:40;101308.44;;;20.43;97.82
54546;BME280;40444;45.184;9.850;2023-10-09T22:09:09;101313.22;;;20.41;97.58
54546;BME280;40444;45.184;9.850;2023-10-09T22:11:43;101315.28;;;20.39;97.51
54546;BME280;40444;45.184;9.850;2023-10-09T22:14:12;101319.38;;;20.35;98.11
54546;BME280;40444;45.184;9.850;2023-10-09T22:16:42;101317.13;;;20.24;98.67
54546;BME280;40444;45.184;9.850;2023-10-09T22:19:11;101316.00;;;20.18;99.27
54546;BME280;40444;45.184;9.850;2023-10-09T22:21:42;101314.66;;;20.14;99.65
54546;BME280;40444;45.184;9.850;2023-10-09T22:24:15;101319.41;;;20.12;99.92
54546;BME280;40444;45.184;9.850;2023-10-09T22:26:46;101309.81;;;20.02;99.85
54546;BME280;40444;45.184;9.850;2023-10-09T22:29:19;101308.69;;;19.96;100.00
54546;BME280;40444;45.184;9.850;2023-10-09T22:31:48;101308.34;;;19.91;100.00
54546;BME280;40444;45.184;9.850;2023-10-09T22:34:17;101312.50;;;19.87;100.00
54546;BME280;40444;45.184;9.850;2023-10-09T22:36:48;101316.59;;;19.83;100.00
54546;BME280;40444;45.184;9.850;2023-10-09T22:39:21;101307.22;;;19.85;100.00
54546;BME280;40444;45.184;9.850;2023-10-09T22:41:53;101310.69;;;19.79;100.00
54546;BME280;40444;45.184;9.850;2023-10-09T22:44:23;101310.19;;;19.76;100.00
54546;BME280;40444;45.184;9.850;2023-10-09T22:46:53;101315.31;;;19.71;100.00
54546;BME280;40444;45.184;9.850;2023-10-09T22:49:24;101312.09;;;19.67;100.00
54546;BME280;40444;45.184;9.850;2023-10-09T22:52:04;101312.66;;;19.62;100.00
54546;BME280;40444;45.184;9.850;2023-10-09T22:54:40;101304.69;;;19.61;100.00
54546;BME280;40444;45.184;9.850;2023-10-09T22:57:17;101311.47;;;19.57;100.00
54546;BME280;40444;45.184;9.850;2023-10-09T22:59:45;101304.00;;;19.51;100.00
54546;BME280;40444;45.184;9.850;2023-10-09T23:02:18;101308.28;;;19.45;100.00
54546;BME280;40444;45.184;9.850;2023-10-09T23:04:51;101308.47;;;19.43;100.00
54546;BME280;40444;45.184;9.850;2023-10-09T23:07:33;101313.22;;;19.41;100.00
54546;BME280;40444;45.184;9.850;2023-10-09T23:10:02;101321.22;;;19.43;100.00
54546;BME280;40444;45.184;9.850;2023-10-09T23:12:43;101313.75;;;19.37;100.00
54546;BME280;40444;45.184;9.850;2023-10-09T23:15:19;101317.50;;;19.36;100.00
54546;BME280;40444;45.184;9.850;2023-10-09T23:18:04;101312.44;;;19.33;100.00
54546;BME280;40444;45.184;9.850;2023-10-09T23:20:56;101313.16;;;19.27;100.00
54546;BME280;40444;45.184;9.850;2023-10-09T23:23:43;101312.66;;;19.23;100.00
54546;BME280;40444;45.184;9.850;2023-10-09T23:26:13;101319.09;;;19.22;100.00
54546;BME280;40444;45.184;9.850;2023-10-09T23:28:50;101312.69;;;19.15;100.00
54546;BME280;40444;45.184;9.850;2023-10-09T23:31:22;101306.41;;;19.14;100.00
54546;BME280;40444;45.184;9.850;2023-10-09T23:33:54;101309.31;;;19.13;100.00
54546;BME280;40444;45.184;9.850;2023-10-09T23:36:26;101315.75;;;19.12;100.00
54546;BME280;40444;45.184;9.850;2023-10-09T23:38:55;101307.31;;;19.07;100.00
54546;BME280;40444;45.184;9.850;2023-10-09T23:41:43;101305.28;;;19.01;100.00
54546;BME280;40444;45.184;9.850;2023-10-09T23:44:27;101312.44;;;18.93;100.00
54546;BME280;40444;45.184;9.850;2023-10-09T23:47:04;101317.88;;;18.85;100.00
54546;BME280;40444;45.184;9.850;2023-10-09T23:49:37;101320.44;;;18.79;100.00
54546;BME280;40444;45.184;9.850;2023-10-09T23:52:07;101329.78;;;18.76;100.00
54546;BME280;40444;45.184;9.850;2023-10-09T23:54:35;101322.00;;;18.73;100.00
54546;BME280;40444;45.184;9.850;2023-10-09T23:57:11;101332.84;;;18.73;100.00
54546;BME280;40444;45.184;9.850;2023-10-09T23:59:49;101326.06;;;18.77;100.00
